createdAt,value
2023-02-11T00:01:35.624Z,10.23
2023-02-11T00:04:04.367Z,10.11
2023-02-11T00:06:32.539Z,10.15
2023-02-11T00:08:59.704Z,10.09
2023-02-11T00:11:30.499Z,9.88
2023-02-11T00:13:59.659Z,9.96
2023-02-11T00:16:26.471Z,10.22
2023-02-11T00:18:54.206Z,10.15
2023-02-11T00:21:25.631Z,10.21
2023-02-11T00:23:52.832Z,10.29
2023-02-11T00:26:22.078Z,10.46
2023-02-11T00:28:50.268Z,10.42
2023-02-11T00:31:18.334Z,10.50
2023-02-11T00:33:45.898Z,10.56
2023-02-11T00:36:18.594Z,10.55
2023-02-11T00:38:48.197Z,10.57
2023-02-11T00:41:15.485Z,10.54
2023-02-11T00:43:42.479Z,10.61
2023-02-11T00:46:10.109Z,10.57
2023-02-11T00:48:36.993Z,10.59
2023-02-11T00:51:04.428Z,10.59
2023-02-11T00:53:31.794Z,10.57
2023-02-11T00:55:58.845Z,10.53
2023-02-11T00:58:25.884Z,10.42
2023-02-11T01:00:53.698Z,10.45
2023-02-11T01:03:20.633Z,10.36
2023-02-11T01:05:48.500Z,10.25
2023-02-11T01:08:15.712Z,10.33
2023-02-11T01:10:44.020Z,10.30
2023-02-11T01:13:11.009Z,10.31
2023-02-11T01:15:38.158Z,10.18
2023-02-11T01:18:05.827Z,10.27
2023-02-11T01:20:32.733Z,10.16
2023-02-11T01:22:59.540Z,10.17
2023-02-11T01:25:26.432Z,10.06
2023-02-11T01:27:53.165Z,10.12
2023-02-11T01:30:20.021Z,10.10
2023-02-11T01:32:47.488Z,10.06
2023-02-11T01:35:14.488Z,10.08
2023-02-11T01:37:41.974Z,10.15
2023-02-11T01:40:14.169Z,10.16
2023-02-11T01:42:41.385Z,10.12
2023-02-11T01:45:47.070Z,10.21
2023-02-11T01:48:17.889Z,10.12
2023-02-11T01:50:47.364Z,10.23
2023-02-11T01:53:33.132Z,10.32
2023-02-11T01:58:47.687Z,10.33
2023-02-11T02:01:18.491Z,10.41
2023-02-11T02:03:47.009Z,10.39
2023-02-11T02:06:20.240Z,10.49
2023-02-11T02:09:16.741Z,10.52
2023-02-11T02:11:43.628Z,10.46
2023-02-11T02:14:10.407Z,10.51
2023-02-11T02:16:37.992Z,10.50
2023-02-11T02:19:32.849Z,10.53
2023-02-11T02:22:34.058Z,10.54
2023-02-11T02:25:16.292Z,10.59
2023-02-11T02:27:55.863Z,10.46
2023-02-11T02:30:50.919Z,10.50
2023-02-11T02:33:32.792Z,10.49
2023-02-11T02:36:16.088Z,10.44
2023-02-11T02:38:58.869Z,10.44
2023-02-11T02:41:30.298Z,10.48
2023-02-11T02:43:57.216Z,10.37
2023-02-11T02:46:27.984Z,10.44
2023-02-11T02:48:56.131Z,10.48
2023-02-11T02:51:31.772Z,10.45
2023-02-11T02:54:08.458Z,10.48
2023-02-11T02:56:44.842Z,10.43
2023-02-11T02:59:20.874Z,10.46
2023-02-11T03:02:22.251Z,10.43
2023-02-11T03:05:07.697Z,10.42
2023-02-11T03:07:48.994Z,10.44
2023-02-11T03:10:20.369Z,10.39
2023-02-11T03:12:48.399Z,10.39
2023-02-11T03:15:16.151Z,10.41
2023-02-11T03:17:46.284Z,10.36
2023-02-11T03:20:15.049Z,10.36
2023-02-11T03:22:48.754Z,10.58
2023-02-11T03:25:15.934Z,10.57
2023-02-11T03:28:07.034Z,10.61
2023-02-11T03:31:00.256Z,10.52
2023-02-11T03:33:40.646Z,10.43
2023-02-11T03:36:12.098Z,10.45
2023-02-11T03:38:45.265Z,10.53
2023-02-11T03:41:13.895Z,10.34
2023-02-11T03:43:45.180Z,10.33
2023-02-11T03:46:12.748Z,10.31
2023-02-11T03:48:43.744Z,10.31
2023-02-11T03:51:11.229Z,10.32
2023-02-11T03:53:39.407Z,10.31
2023-02-11T03:56:09.007Z,10.36
2023-02-11T03:58:35.866Z,10.32
2023-02-11T04:01:03.095Z,10.40
2023-02-11T04:03:30.007Z,10.46
2023-02-11T04:05:56.780Z,10.39
2023-02-11T04:08:23.598Z,10.39
2023-02-11T04:10:50.327Z,10.27
2023-02-11T04:13:17.126Z,10.22
2023-02-11T04:15:43.941Z,10.23
2023-02-11T04:18:10.785Z,10.16
2023-02-11T04:20:37.562Z,10.18
2023-02-11T04:23:04.321Z,10.22
2023-02-11T04:25:31.243Z,10.17
2023-02-11T04:27:58.080Z,10.16
2023-02-11T04:30:24.913Z,10.17
2023-02-11T04:32:51.714Z,10.18
2023-02-11T04:35:18.570Z,10.13
2023-02-11T04:37:45.376Z,10.17
2023-02-11T04:40:12.569Z,10.24
2023-02-11T04:42:39.351Z,10.18
2023-02-11T04:45:07.901Z,10.09
2023-02-11T04:47:34.908Z,10.11
2023-02-11T04:50:01.707Z,10.03
2023-02-11T04:52:28.539Z,9.97
2023-02-11T04:54:55.316Z,9.80
2023-02-11T04:57:22.105Z,9.69
2023-02-11T04:59:48.971Z,9.59
2023-02-11T05:02:15.779Z,9.55
2023-02-11T05:04:42.533Z,9.40
2023-02-11T05:07:09.269Z,9.41
2023-02-11T05:09:36.010Z,9.39
2023-02-11T05:12:02.739Z,9.18
2023-02-11T05:14:29.498Z,9.10
2023-02-11T05:16:56.393Z,8.91
2023-02-11T05:19:23.226Z,8.68
2023-02-11T05:22:01.650Z,8.62
2023-02-11T05:24:29.308Z,8.67
2023-02-11T05:26:56.073Z,8.86
2023-02-11T05:29:22.924Z,9.01
2023-02-11T05:31:49.787Z,9.02
2023-02-11T05:34:16.628Z,8.91
2023-02-11T05:36:43.416Z,9.03
2023-02-11T05:39:10.418Z,8.91
2023-02-11T05:41:38.251Z,8.85
2023-02-11T05:44:05.151Z,9.03
2023-02-11T05:46:31.980Z,9.23
2023-02-11T05:48:58.896Z,9.37
2023-02-11T05:51:25.630Z,9.42
2023-02-11T05:53:52.906Z,9.49
2023-02-11T05:56:19.694Z,9.52
2023-02-11T05:58:46.515Z,9.66
2023-02-11T06:01:13.315Z,9.69
2023-02-11T06:03:40.251Z,9.62
2023-02-11T06:06:11.624Z,9.31
2023-02-11T06:08:39.491Z,9.25
2023-02-11T06:11:06.417Z,9.20
2023-02-11T06:13:33.361Z,9.16
2023-02-11T06:16:01.404Z,9.14
2023-02-11T06:18:29.573Z,9.25
2023-02-11T06:20:56.813Z,9.26
2023-02-11T06:23:23.762Z,9.24
2023-02-11T06:25:51.372Z,9.28
2023-02-11T06:28:19.212Z,9.13
2023-02-11T06:30:46.082Z,9.18
2023-02-11T06:33:12.876Z,9.20
2023-02-11T06:35:39.796Z,9.10
2023-02-11T06:38:06.687Z,9.25
2023-02-11T06:40:33.448Z,9.16
2023-02-11T06:43:00.244Z,9.04
2023-02-11T06:45:27.022Z,8.93
2023-02-11T06:47:53.791Z,9.08
2023-02-11T06:50:20.652Z,9.19
2023-02-11T06:52:47.488Z,9.21
2023-02-11T06:55:14.254Z,9.23
2023-02-11T06:57:41.168Z,9.24
2023-02-11T07:00:08.895Z,9.27
2023-02-11T07:02:36.100Z,9.26
2023-02-11T07:05:03.090Z,9.28
2023-02-11T07:07:32.384Z,9.36
2023-02-11T07:10:00.544Z,9.33
2023-02-11T07:12:27.380Z,9.33
2023-02-11T07:14:54.246Z,9.36
2023-02-11T07:17:21.089Z,9.42
2023-02-11T07:19:47.916Z,9.31
2023-02-11T07:22:14.953Z,9.37
2023-02-11T07:24:41.926Z,9.33
2023-02-11T07:27:08.685Z,9.32
2023-02-11T07:29:35.474Z,9.38
2023-02-11T07:32:02.221Z,9.48
2023-02-11T07:34:29.020Z,9.49
2023-02-11T07:36:55.838Z,9.43
2023-02-11T07:39:22.874Z,9.31
2023-02-11T07:41:49.648Z,9.23
2023-02-11T07:44:17.014Z,9.22
2023-02-11T07:46:45.344Z,9.14
2023-02-11T07:49:12.722Z,9.03
2023-02-11T07:51:39.495Z,8.85
2023-02-11T07:54:06.344Z,8.80
2023-02-11T07:56:33.163Z,8.96
2023-02-11T07:59:02.343Z,9.01
2023-02-11T08:01:29.568Z,8.81
2023-02-11T08:03:57.921Z,8.71
2023-02-11T08:06:26.495Z,8.83
2023-02-11T08:08:53.394Z,8.77
2023-02-11T08:11:22.564Z,8.78
2023-02-11T08:13:50.094Z,8.82
2023-02-11T08:16:24.931Z,8.66
2023-02-11T08:18:53.249Z,8.56
2023-02-11T08:21:20.619Z,8.44
2023-02-11T08:23:48.074Z,8.66
2023-02-11T08:26:17.856Z,8.58
2023-02-11T08:28:45.675Z,8.62
2023-02-11T08:31:16.443Z,8.50
2023-02-11T08:33:43.678Z,8.56
2023-02-11T08:36:12.665Z,8.47
2023-02-11T08:38:39.669Z,8.24
2023-02-11T08:41:06.795Z,8.17
2023-02-11T08:43:34.331Z,8.25
2023-02-11T08:46:02.420Z,8.29
2023-02-11T08:48:30.062Z,8.61
2023-02-11T08:50:57.412Z,8.71
2023-02-11T08:53:24.640Z,8.58
2023-02-11T08:55:53.188Z,8.54
2023-02-11T08:58:20.828Z,8.49
2023-02-11T09:00:49.196Z,8.47
2023-02-11T09:03:16.445Z,8.51
2023-02-11T09:05:44.609Z,8.74
2023-02-11T09:08:11.610Z,8.79
2023-02-11T09:10:38.524Z,8.84
2023-02-11T09:13:05.970Z,8.76
2023-02-11T09:15:33.672Z,8.96
2023-02-11T09:18:00.486Z,8.90
2023-02-11T09:20:27.631Z,8.73
2023-02-11T09:22:56.659Z,8.75
2023-02-11T09:25:23.455Z,8.80
2023-02-11T09:27:51.457Z,8.71
2023-02-11T09:30:18.519Z,8.70
2023-02-11T09:32:45.340Z,8.91
2023-02-11T09:35:12.127Z,8.97
2023-02-11T09:37:38.961Z,8.96
2023-02-11T09:40:06.155Z,9.00
2023-02-11T09:42:50.947Z,9.02
2023-02-11T09:45:21.150Z,9.14
2023-02-11T09:48:01.067Z,9.18
2023-02-11T09:50:34.654Z,9.41
2023-02-11T09:53:17.914Z,9.42
2023-02-11T09:55:47.174Z,9.49
2023-02-11T09:58:21.518Z,9.55
2023-02-11T10:01:26.619Z,9.66
2023-02-11T10:04:15.077Z,9.74
2023-02-11T10:06:54.080Z,9.71
2023-02-11T10:09:29.275Z,9.78
2023-02-11T10:12:20.496Z,9.89
2023-02-11T10:14:56.169Z,10.04
2023-02-11T10:17:38.201Z,10.04
2023-02-11T10:20:10.915Z,10.05
2023-02-11T10:22:44.572Z,10.20
2023-02-11T10:25:23.447Z,10.14
2023-02-11T10:27:51.430Z,10.11
2023-02-11T10:31:03.133Z,10.31
2023-02-11T10:33:46.789Z,10.33
2023-02-11T10:36:15.442Z,10.30
2023-02-11T10:38:42.902Z,10.39
2023-02-11T10:41:26.255Z,10.40
2023-02-11T10:43:53.099Z,10.44
2023-02-11T10:46:23.734Z,10.45
2023-02-11T10:48:52.943Z,10.54
2023-02-11T10:51:23.473Z,10.52
2023-02-11T10:54:06.223Z,10.65
2023-02-11T10:56:35.801Z,10.50
2023-02-11T10:59:23.846Z,10.66
2023-02-11T11:01:53.573Z,10.69
2023-02-11T11:04:26.450Z,10.77
2023-02-11T11:06:53.249Z,10.77
2023-02-11T11:09:31.351Z,10.88
2023-02-11T11:11:58.312Z,10.94
2023-02-11T11:14:29.002Z,11.01
2023-02-11T11:16:56.159Z,11.29
2023-02-11T11:19:24.794Z,11.43
2023-02-11T11:21:56.549Z,11.49
2023-02-11T11:24:27.574Z,11.61
2023-02-11T11:26:57.532Z,11.68
2023-02-11T11:29:28.772Z,11.71
2023-02-11T11:31:59.490Z,11.64
2023-02-11T11:34:38.748Z,11.72
2023-02-11T11:37:24.436Z,11.77
2023-02-11T11:40:02.637Z,11.75
2023-02-11T11:42:32.649Z,11.81
2023-02-11T11:45:16.203Z,11.78
2023-02-11T11:48:12.388Z,11.86
2023-02-11T11:50:45.430Z,11.88
2023-02-11T11:53:30.972Z,11.81
2023-02-11T11:56:14.694Z,11.89
2023-02-11T11:58:41.642Z,12.02
2023-02-11T12:01:30.028Z,12.15
2023-02-11T12:04:21.515Z,12.17
2023-02-11T12:07:26.172Z,12.10
2023-02-11T12:10:12.348Z,12.15
2023-02-11T12:13:11.490Z,12.16
2023-02-11T12:15:54.495Z,12.22
2023-02-11T12:18:51.739Z,12.16
2023-02-11T12:21:24.487Z,12.23
2023-02-11T12:24:10.520Z,12.11
2023-02-11T12:26:49.423Z,12.19
2023-02-11T12:29:48.338Z,12.13
2023-02-11T12:32:31.870Z,12.17
2023-02-11T12:35:05.919Z,12.11
2023-02-11T12:37:32.674Z,12.17
2023-02-11T12:40:13.446Z,12.22
2023-02-11T12:43:16.637Z,12.23
2023-02-11T12:46:02.577Z,12.32
2023-02-11T12:48:38.491Z,12.47
2023-02-11T12:51:11.210Z,12.67
2023-02-11T12:53:56.919Z,13.02
2023-02-11T12:56:29.755Z,13.55
2023-02-11T12:58:59.355Z,14.23
2023-02-11T13:01:26.885Z,14.45
2023-02-11T13:04:08.537Z,14.63
2023-02-11T13:06:58.035Z,14.76
2023-02-11T13:09:28.224Z,15.07
2023-02-11T13:11:57.077Z,15.42
2023-02-11T13:14:23.729Z,15.73
2023-02-11T13:16:51.104Z,15.85
2023-02-11T13:19:37.044Z,15.97
2023-02-11T13:22:31.691Z,15.90
2023-02-11T13:25:06.654Z,16.12
2023-02-11T13:28:09.402Z,16.28
2023-02-11T13:30:39.626Z,16.18
2023-02-11T13:33:18.380Z,16.05
2023-02-11T13:35:57.441Z,16.03
2023-02-11T13:38:26.550Z,15.83
2023-02-11T13:41:02.103Z,16.10
2023-02-11T13:43:30.078Z,16.32
2023-02-11T13:46:10.146Z,16.08
2023-02-11T13:48:39.392Z,16.47
2023-02-11T13:51:08.821Z,16.85
2023-02-11T13:53:52.320Z,16.31
2023-02-11T13:56:31.751Z,16.67
2023-02-11T13:59:02.093Z,16.59
2023-02-11T14:01:42.570Z,17.21
2023-02-11T14:04:42.803Z,17.73
2023-02-11T14:08:00.726Z,18.06
2023-02-11T14:10:43.007Z,17.87
2023-02-11T14:13:29.541Z,17.47
2023-02-11T14:16:15.847Z,17.88
2023-02-11T14:18:56.167Z,17.53
2023-02-11T14:21:32.442Z,17.95
2023-02-11T14:24:02.363Z,18.05
2023-02-11T14:26:45.612Z,17.79
2023-02-11T14:29:14.600Z,17.63
2023-02-11T14:31:53.756Z,18.46
2023-02-11T14:34:26.903Z,17.95
2023-02-11T14:37:12.251Z,18.68
2023-02-11T14:39:46.536Z,17.83
2023-02-11T14:42:19.037Z,18.36
2023-02-11T14:44:48.069Z,18.24
2023-02-11T14:47:20.873Z,18.33
2023-02-11T14:49:48.508Z,18.16
2023-02-11T14:52:28.161Z,17.84
2023-02-11T14:55:40.338Z,18.75
2023-02-11T14:58:27.967Z,17.87
2023-02-11T15:01:19.141Z,17.54
2023-02-11T15:03:49.539Z,17.50
2023-02-11T15:06:22.694Z,17.59
2023-02-11T15:08:53.041Z,17.64
2023-02-11T15:11:21.933Z,17.36
2023-02-11T15:13:50.539Z,17.74
2023-02-11T15:16:23.091Z,17.67
2023-02-11T15:18:53.589Z,16.96
2023-02-11T15:21:26.268Z,16.96
2023-02-11T15:24:06.394Z,15.95
2023-02-11T15:26:33.525Z,15.48
2023-02-11T15:29:00.336Z,15.38
2023-02-11T15:31:28.280Z,15.08
2023-02-11T15:33:55.466Z,15.25
2023-02-11T15:36:28.763Z,14.98
2023-02-11T15:39:18.500Z,14.77
2023-02-11T15:41:45.498Z,14.67
2023-02-11T15:44:32.900Z,13.94
2023-02-11T15:47:00.321Z,14.09
2023-02-11T15:49:27.626Z,14.01
2023-02-11T15:51:57.092Z,13.86
2023-02-11T15:54:26.881Z,13.31
2023-02-11T15:56:55.602Z,13.58
2023-02-11T15:59:35.579Z,13.46
2023-02-11T16:02:17.842Z,13.46
2023-02-11T16:04:55.543Z,13.38
2023-02-11T16:07:49.712Z,13.42
2023-02-11T16:10:19.358Z,13.12
2023-02-11T16:12:53.989Z,13.14
2023-02-11T16:15:44.204Z,12.88
2023-02-11T16:18:52.018Z,12.91
2023-02-11T16:21:36.395Z,12.82
2023-02-11T16:24:04.000Z,12.85
2023-02-11T16:26:43.136Z,12.49
2023-02-11T16:29:18.293Z,12.31
2023-02-11T16:31:47.434Z,12.41
2023-02-11T16:34:28.029Z,12.36
2023-02-11T16:36:54.817Z,12.41
2023-02-11T16:39:22.862Z,12.26
2023-02-11T16:41:53.090Z,12.15
2023-02-11T16:44:20.057Z,11.95
2023-02-11T16:46:47.209Z,12.01
2023-02-11T16:49:24.518Z,12.00
2023-02-11T16:51:53.480Z,12.09
2023-02-11T16:54:20.816Z,12.12
2023-02-11T16:56:47.691Z,12.17
2023-02-11T16:59:14.624Z,12.14
2023-02-11T17:01:42.603Z,12.14
2023-02-11T17:04:25.903Z,12.16
2023-02-11T17:06:53.138Z,12.03
2023-02-11T17:09:22.580Z,12.10
2023-02-11T17:11:49.824Z,11.81
2023-02-11T17:14:16.895Z,11.88
2023-02-11T17:16:45.316Z,11.54
2023-02-11T17:19:13.594Z,11.77
2023-02-11T17:21:47.216Z,11.78
2023-02-11T17:24:16.888Z,11.57
2023-02-11T17:26:44.574Z,11.67
2023-02-11T17:29:14.321Z,11.49
2023-02-11T17:31:41.320Z,11.34
2023-02-11T17:34:08.486Z,11.43
2023-02-11T17:36:35.476Z,11.25
2023-02-11T17:39:03.338Z,11.12
2023-02-11T17:41:31.207Z,10.98
2023-02-11T17:43:59.024Z,10.87
2023-02-11T17:46:25.927Z,10.89
2023-02-11T17:48:53.230Z,10.83
2023-02-11T17:51:31.224Z,10.84
2023-02-11T17:53:59.765Z,10.77
2023-02-11T17:56:26.568Z,10.75
2023-02-11T17:58:53.459Z,10.68
2023-02-11T18:01:20.669Z,10.73
2023-02-11T18:03:47.949Z,10.74
2023-02-11T18:06:14.853Z,10.57
2023-02-11T18:08:45.238Z,10.57
2023-02-11T18:11:13.177Z,10.53
2023-02-11T18:13:40.021Z,10.80
2023-02-11T18:16:08.679Z,10.80
2023-02-11T18:18:35.581Z,10.67
2023-02-11T18:21:08.963Z,10.68
2023-02-11T18:23:36.340Z,10.61
2023-02-11T18:26:03.215Z,10.78
2023-02-11T18:28:30.165Z,10.67
2023-02-11T18:30:58.956Z,10.82
2023-02-11T18:33:26.246Z,10.78
2023-02-11T18:35:53.242Z,10.77
2023-02-11T18:38:20.457Z,10.53
2023-02-11T18:40:49.765Z,10.38
2023-02-11T18:43:20.509Z,10.39
2023-02-11T18:45:48.691Z,10.33
2023-02-11T18:48:16.834Z,10.32
2023-02-11T18:50:45.285Z,10.23
2023-02-11T18:53:15.699Z,10.31
2023-02-11T18:55:44.056Z,10.35
2023-02-11T18:58:11.256Z,10.50
2023-02-11T19:00:40.475Z,10.71
2023-02-11T19:03:07.399Z,10.71
2023-02-11T19:05:42.013Z,10.60
2023-02-11T19:08:08.855Z,10.53
2023-02-11T19:10:35.675Z,10.66
2023-02-11T19:13:02.527Z,10.50
2023-02-11T19:15:29.233Z,10.53
2023-02-11T19:17:56.075Z,10.64
2023-02-11T19:20:23.077Z,10.60
2023-02-11T19:22:50.156Z,10.41
2023-02-11T19:25:17.031Z,10.43
2023-02-11T19:27:43.964Z,10.30
2023-02-11T19:30:11.108Z,10.33
2023-02-11T19:32:37.863Z,10.18
2023-02-11T19:35:04.868Z,10.12
2023-02-11T19:37:31.670Z,10.40
2023-02-11T19:39:58.412Z,10.41
2023-02-11T19:42:27.596Z,10.24
2023-02-11T19:44:54.558Z,9.95
2023-02-11T19:47:27.619Z,10.07
2023-02-11T19:49:54.859Z,9.98
2023-02-11T19:52:21.692Z,9.84
2023-02-11T19:54:48.521Z,9.86
2023-02-11T19:57:15.232Z,10.05
2023-02-11T19:59:42.207Z,9.71
2023-02-11T20:02:11.591Z,9.68
2023-02-11T20:04:38.791Z,9.77
2023-02-11T20:07:06.093Z,9.74
2023-02-11T20:09:33.144Z,9.70
2023-02-11T20:12:00.097Z,9.95
2023-02-11T20:14:28.110Z,9.75
2023-02-11T20:16:55.141Z,9.59
2023-02-11T20:19:22.535Z,9.57
2023-02-11T20:21:52.339Z,9.62
2023-02-11T20:24:19.784Z,9.54
2023-02-11T20:26:48.532Z,9.48
2023-02-11T20:29:18.780Z,9.35
2023-02-11T20:31:45.988Z,9.25
2023-02-11T20:34:13.134Z,9.28
2023-02-11T20:36:40.686Z,9.05
2023-02-11T20:39:07.906Z,8.94
2023-02-11T20:41:36.683Z,9.08
2023-02-11T20:44:06.945Z,8.92
2023-02-11T20:46:34.497Z,8.77
2023-02-11T20:49:01.818Z,8.81
2023-02-11T20:51:30.839Z,8.63
2023-02-11T20:53:57.980Z,8.29
2023-02-11T20:56:26.820Z,8.36
2023-02-11T20:58:53.553Z,8.26
2023-02-11T21:01:21.760Z,8.33
2023-02-11T21:04:03.434Z,8.63
2023-02-11T21:06:36.673Z,8.59
2023-02-11T21:09:05.030Z,8.64
2023-02-11T21:11:31.963Z,8.68
2023-02-11T21:13:59.147Z,8.93
2023-02-11T21:16:26.473Z,9.09
2023-02-11T21:18:53.521Z,9.36
2023-02-11T21:21:20.617Z,9.31
2023-02-11T21:23:47.944Z,9.31
2023-02-11T21:26:15.806Z,9.07
2023-02-11T21:28:42.780Z,8.89
2023-02-11T21:31:11.229Z,8.80
2023-02-11T21:33:38.373Z,8.66
2023-02-11T21:36:07.837Z,8.77
2023-02-11T21:38:34.902Z,8.63
2023-02-11T21:41:05.625Z,8.86
2023-02-11T21:43:32.840Z,8.70
2023-02-11T21:46:00.204Z,8.83
2023-02-11T21:48:27.200Z,8.88
2023-02-11T21:50:54.018Z,8.92
2023-02-11T21:53:20.934Z,8.71
2023-02-11T21:55:47.776Z,8.83
2023-02-11T21:58:14.809Z,8.83
2023-02-11T22:00:41.692Z,8.77
2023-02-11T22:03:08.608Z,8.69
2023-02-11T22:05:35.381Z,8.69
2023-02-11T22:08:02.247Z,8.53
2023-02-11T22:10:29.062Z,8.45
2023-02-11T22:12:55.935Z,8.45
2023-02-11T22:15:22.804Z,8.39
2023-02-11T22:17:49.564Z,8.38
2023-02-11T22:20:16.932Z,8.21
2023-02-11T22:22:43.823Z,8.21
2023-02-11T22:25:10.714Z,8.37
2023-02-11T22:27:37.586Z,8.28
2023-02-11T22:30:05.669Z,8.24
2023-02-11T22:32:32.570Z,8.42
2023-02-11T22:34:59.417Z,8.37
2023-02-11T22:37:26.363Z,8.47
2023-02-11T22:39:53.222Z,8.33
2023-02-11T22:42:20.127Z,8.49
2023-02-11T22:44:47.058Z,8.49
2023-02-11T22:47:13.834Z,8.34
2023-02-11T22:49:41.412Z,8.33
2023-02-11T22:52:08.420Z,8.07
2023-02-11T22:54:36.342Z,8.20
2023-02-11T22:57:03.344Z,8.36
2023-02-11T22:59:30.191Z,8.36
2023-02-11T23:01:57.226Z,8.39
2023-02-11T23:04:24.152Z,8.32
2023-02-11T23:06:50.987Z,8.11
2023-02-11T23:09:17.823Z,8.14
2023-02-11T23:11:44.828Z,8.23
2023-02-11T23:14:12.372Z,8.09
2023-02-11T23:16:39.410Z,8.29
2023-02-11T23:19:08.731Z,8.28
2023-02-11T23:21:37.860Z,8.24
2023-02-11T23:24:07.992Z,8.32
2023-02-11T23:26:34.974Z,8.42
2023-02-11T23:29:01.909Z,8.25
2023-02-11T23:31:37.651Z,8.17
2023-02-11T23:34:05.092Z,8.21
2023-02-11T23:36:32.511Z,8.13
2023-02-11T23:38:59.452Z,8.07
2023-02-11T23:41:26.200Z,8.20
2023-02-11T23:43:55.884Z,8.34
2023-02-11T23:46:23.888Z,8.41
2023-02-11T23:48:51.250Z,8.47
2023-02-11T23:51:18.268Z,8.45
2023-02-11T23:53:49.362Z,8.48
2023-02-11T23:56:21.727Z,8.49
2023-02-11T23:58:49.837Z,8.41
